Terminal Aerodrome Forecast
Issued by NWS Wilmington, OH

Home | Current Version | Previous Version | Text Only | Print | Product List | Glossary On
Versions: 1 2 3 4 5 6 7 8 9 10 11 12 13 14 15 16
000
FTUS41 KILN 031800 AAA
TAFCMH
TAF AMD
KCMH 031837Z 0319/0418 22014KT P6SM SCT040 BKN070
     FM040000 17005KT P6SM FEW060 SCT150
     FM041500 22011G19KT P6SM FEW050 SCT120=

USA.gov is the U.S. government's official web portal to all federal, state and local government web resources and services.